Strona główna
METAR-TAF:

METAR-TAF

Lotnisko :

Le Touquet, Francja

Szerokość geograficzna: 50-30-53N, Długość geograficzna: 001-37-39E, wysokość: 6 m

Aktualna obserwacja pogody

Raport powstał 44 minut temu, godzina 06:00 UTC
Wiatr 8 kt od wschód
Temperatura 17°C
Wilgotność 55%
Ciśnienie 1020 hPa
Widzialność 10 km lub więcej
Brak chmur poniżej 1500 m i brak chmur cumulonimbus

METAR: LFAT 010600Z AUTO 08008KT CAVOK 17/08 Q1020

czas: 08:44 (06:44 UTC)


TAF: brakujący

Obserwacja i prognoza pogody dla ponad 4000 lotnisk (raport METAR i TAF).

Dostępne stacje oznaczono żółtymi i czerwonymi punktami na mapie.

Najedź kursorem aby zobaczyć nazwę stacji.

Kliknij aby zobaczyć obserwacje i prognozy pogody.

Aby zmienić mapę: kliknij na zielony przycisk z czarnym krzyżykiem, aby powiększyć; na zielony przycisk z myślnikiem, aby pomniejszyć; na zielone strzałki, aby przejść do map sąsiednich.


METAR-TAF: